createdAt,value
2023-05-09T00:00:38.781Z,83.04
2023-05-09T00:02:46.120Z,83.58
2023-05-09T00:04:49.252Z,81.87
2023-05-09T00:06:52.320Z,81.37
2023-05-09T00:08:55.340Z,82.42
2023-05-09T00:10:58.640Z,82.21
2023-05-09T00:13:01.661Z,82.34
2023-05-09T00:15:08.563Z,83.00
2023-05-09T00:17:14.774Z,83.18
2023-05-09T00:19:19.090Z,83.98
2023-05-09T00:21:22.278Z,83.73
2023-05-09T00:23:25.119Z,83.40
2023-05-09T00:25:28.125Z,81.68
2023-05-09T00:27:31.388Z,82.37
2023-05-09T00:29:34.360Z,81.51
2023-05-09T00:31:37.310Z,80.76
2023-05-09T00:33:40.350Z,80.77
2023-05-09T00:35:44.761Z,82.31
2023-05-09T00:37:47.812Z,82.11
2023-05-09T00:39:50.779Z,82.62
2023-05-09T00:41:55.990Z,83.86
2023-05-09T00:43:59.121Z,84.35
2023-05-09T00:46:02.293Z,83.59
2023-05-09T00:48:06.398Z,84.43
2023-05-09T00:50:10.451Z,85.23
2023-05-09T00:52:15.179Z,83.30
2023-05-09T00:54:18.289Z,83.20
2023-05-09T00:56:22.270Z,85.60
2023-05-09T00:58:25.848Z,84.46
2023-05-09T01:00:28.876Z,82.71
2023-05-09T01:02:32.653Z,82.73
2023-05-09T01:04:35.787Z,83.78
2023-05-09T01:06:49.361Z,84.25
2023-05-09T01:09:00.180Z,83.23
2023-05-09T01:11:11.492Z,84.16
2023-05-09T01:13:23.445Z,84.14
2023-05-09T01:15:31.656Z,84.82
2023-05-09T01:17:46.726Z,84.00
2023-05-09T01:20:11.482Z,84.24
2023-05-09T01:22:16.712Z,86.34
2023-05-09T01:24:40.416Z,85.30
2023-05-09T01:26:48.324Z,85.99
2023-05-09T01:29:14.658Z,86.15
2023-05-09T01:31:18.171Z,86.16
2023-05-09T01:33:24.207Z,86.22
2023-05-09T01:35:30.542Z,84.94
2023-05-09T01:37:37.209Z,84.29
2023-05-09T01:39:42.805Z,85.29
2023-05-09T01:41:46.767Z,84.92
2023-05-09T01:43:52.463Z,84.59
2023-05-09T01:46:00.046Z,84.02
2023-05-09T01:48:04.636Z,83.05
2023-05-09T01:50:10.511Z,82.71
2023-05-09T01:52:17.246Z,82.99
2023-05-09T01:54:22.212Z,83.13
2023-05-09T01:56:26.155Z,84.63
2023-05-09T01:58:31.672Z,84.66
2023-05-09T02:00:34.505Z,84.52
2023-05-09T02:02:39.516Z,83.63
2023-05-09T02:04:44.063Z,83.20
2023-05-09T02:06:51.001Z,83.65
2023-05-09T02:08:54.124Z,87.14
2023-05-09T02:10:57.124Z,86.98
2023-05-09T02:13:00.061Z,86.95
2023-05-09T02:15:03.275Z,86.05
2023-05-09T02:17:09.836Z,85.48
2023-05-09T02:19:14.259Z,86.38
2023-05-09T02:21:17.156Z,86.56
2023-05-09T02:23:21.031Z,87.13
2023-05-09T02:25:24.099Z,87.23
2023-05-09T02:27:28.191Z,85.31
2023-05-09T02:29:40.791Z,85.13
2023-05-09T02:31:45.940Z,86.18
2023-05-09T02:33:50.250Z,85.42
2023-05-09T02:35:55.883Z,84.69
2023-05-09T02:37:59.861Z,84.60
2023-05-09T02:40:05.809Z,85.74
2023-05-09T02:42:11.201Z,86.52
2023-05-09T02:44:14.099Z,87.39
2023-05-09T02:46:17.924Z,87.54
2023-05-09T02:48:20.834Z,86.73
2023-05-09T02:50:24.248Z,84.67
2023-05-09T02:52:28.643Z,86.24
2023-05-09T02:54:31.835Z,85.37
2023-05-09T02:56:35.480Z,86.07
2023-05-09T02:58:38.712Z,86.52
2023-05-09T03:00:42.409Z,84.69
2023-05-09T03:02:45.492Z,85.81
2023-05-09T03:04:52.168Z,85.87
2023-05-09T03:06:55.327Z,84.20
2023-05-09T03:09:00.392Z,84.01
2023-05-09T03:11:03.609Z,85.04
2023-05-09T03:13:07.248Z,84.58
2023-05-09T03:15:10.750Z,84.54
2023-05-09T03:17:21.583Z,83.90
2023-05-09T03:19:24.622Z,84.40
2023-05-09T03:21:27.574Z,84.08
2023-05-09T03:23:31.608Z,85.05
2023-05-09T03:25:36.028Z,83.94
2023-05-09T03:27:39.013Z,84.76
2023-05-09T03:29:45.656Z,83.97
2023-05-09T03:31:50.841Z,83.79
2023-05-09T03:33:54.111Z,83.39
2023-05-09T03:35:57.592Z,85.86
2023-05-09T03:38:00.982Z,85.49
2023-05-09T03:40:04.371Z,85.79
2023-05-09T03:42:13.352Z,85.77
2023-05-09T03:44:18.341Z,84.30
2023-05-09T03:46:21.335Z,85.70
2023-05-09T03:48:25.090Z,84.34
2023-05-09T03:50:28.454Z,85.06
2023-05-09T03:52:34.301Z,84.62
2023-05-09T03:54:38.019Z,83.91
2023-05-09T03:56:41.213Z,85.04
2023-05-09T03:58:46.621Z,83.33
2023-05-09T04:00:51.701Z,83.87
2023-05-09T04:02:58.667Z,83.97
2023-05-09T04:05:08.623Z,84.21
2023-05-09T04:07:13.733Z,84.25
2023-05-09T04:09:16.885Z,83.34
2023-05-09T04:11:22.109Z,85.05
2023-05-09T04:13:26.111Z,84.37
2023-05-09T04:15:30.856Z,85.57
2023-05-09T04:17:34.520Z,86.59
2023-05-09T04:19:37.530Z,86.48
2023-05-09T04:21:40.487Z,85.68
2023-05-09T04:23:44.248Z,83.86
2023-05-09T04:25:48.501Z,83.41
2023-05-09T04:27:51.703Z,82.81
2023-05-09T04:29:54.624Z,82.37
2023-05-09T04:31:59.634Z,81.98
2023-05-09T04:34:03.588Z,82.92
2023-05-09T04:36:09.865Z,81.89
2023-05-09T04:38:12.934Z,81.45
2023-05-09T04:40:16.535Z,82.19
2023-05-09T04:42:26.722Z,81.19
2023-05-09T04:44:29.663Z,81.36
2023-05-09T04:46:32.704Z,82.09
2023-05-09T04:48:37.195Z,81.63
2023-05-09T04:50:41.245Z,81.96
2023-05-09T04:52:44.298Z,81.82
2023-05-09T04:54:47.416Z,80.73
2023-05-09T04:56:53.249Z,80.65
2023-05-09T04:58:59.808Z,80.80
2023-05-09T05:01:02.983Z,79.77
2023-05-09T05:03:07.428Z,80.34
2023-05-09T05:05:12.788Z,79.70
2023-05-09T05:07:18.583Z,79.63
2023-05-09T05:09:21.916Z,78.38
2023-05-09T05:11:24.774Z,78.70
2023-05-09T05:13:28.379Z,77.75
2023-05-09T05:15:34.804Z,77.61
2023-05-09T05:17:38.345Z,77.15
2023-05-09T05:19:43.312Z,78.45
2023-05-09T05:21:47.656Z,77.29
2023-05-09T05:23:50.630Z,75.51
2023-05-09T05:25:53.874Z,75.74
2023-05-09T05:27:56.895Z,74.61
2023-05-09T05:30:00.233Z,75.90
2023-05-09T05:32:03.237Z,74.63
2023-05-09T05:34:06.764Z,74.27
2023-05-09T05:36:10.451Z,74.21
2023-05-09T05:38:14.978Z,74.65
2023-05-09T05:40:19.701Z,74.80
2023-05-09T05:42:24.754Z,73.50
2023-05-09T05:44:27.640Z,75.10
2023-05-09T05:46:30.700Z,73.53
2023-05-09T05:48:34.123Z,71.70
2023-05-09T05:50:37.212Z,71.96
2023-05-09T05:52:41.935Z,70.38
2023-05-09T05:54:50.118Z,70.56
2023-05-09T05:56:53.101Z,69.39
2023-05-09T05:58:56.160Z,68.90
2023-05-09T06:00:59.278Z,69.99
2023-05-09T06:03:02.376Z,68.23
2023-05-09T06:05:27.961Z,67.23
2023-05-09T06:07:30.869Z,67.61
2023-05-09T06:09:33.738Z,66.10
2023-05-09T06:11:38.355Z,64.55
2023-05-09T06:13:41.203Z,62.61
2023-05-09T06:15:44.858Z,63.68
2023-05-09T06:17:47.866Z,61.50
2023-05-09T06:19:50.869Z,59.67
2023-05-09T06:21:54.663Z,59.50
2023-05-09T06:24:09.724Z,61.63
2023-05-09T06:26:17.247Z,61.05
2023-05-09T06:28:21.783Z,59.33
2023-05-09T06:30:26.648Z,59.90
2023-05-09T06:32:29.851Z,58.72
2023-05-09T06:34:32.980Z,58.32
2023-05-09T06:36:36.242Z,58.96
2023-05-09T06:38:39.121Z,57.72
2023-05-09T06:40:42.364Z,55.60
2023-05-09T06:42:45.621Z,56.42
2023-05-09T06:44:50.370Z,55.52
2023-05-09T06:46:53.447Z,54.94
2023-05-09T06:48:56.456Z,54.56
2023-05-09T06:50:59.281Z,54.21
2023-05-09T06:53:02.733Z,53.99
2023-05-09T06:55:07.039Z,51.58
2023-05-09T06:57:10.070Z,53.29
2023-05-09T06:59:13.989Z,51.60
2023-05-09T07:01:18.487Z,52.92
2023-05-09T07:03:21.366Z,53.38
2023-05-09T07:05:24.493Z,52.63
2023-05-09T07:07:27.563Z,52.17
2023-05-09T07:09:30.485Z,52.79
2023-05-09T07:11:36.054Z,50.69
2023-05-09T07:13:39.019Z,51.23
2023-05-09T07:15:43.054Z,50.92
2023-05-09T07:17:47.876Z,52.11
2023-05-09T07:19:50.818Z,52.13
2023-05-09T07:21:53.887Z,51.57
2023-05-09T07:23:56.748Z,50.75
2023-05-09T07:25:59.892Z,50.43
2023-05-09T07:28:02.784Z,51.08
2023-05-09T07:30:07.331Z,49.22
2023-05-09T07:32:11.663Z,48.71
2023-05-09T07:34:17.462Z,50.13
2023-05-09T07:36:21.259Z,50.57
2023-05-09T07:38:25.589Z,49.27
2023-05-09T07:40:28.776Z,50.39
2023-05-09T07:42:33.052Z,50.84
2023-05-09T07:44:36.061Z,49.61
2023-05-09T07:46:41.172Z,47.47
2023-05-09T07:48:44.187Z,49.57
2023-05-09T07:50:48.637Z,49.60
2023-05-09T07:52:52.983Z,45.13
2023-05-09T07:54:56.220Z,45.29
2023-05-09T07:56:59.126Z,45.17
2023-05-09T07:59:03.630Z,45.00
2023-05-09T08:01:06.746Z,45.68
2023-05-09T08:03:09.929Z,43.33
2023-05-09T08:05:14.177Z,42.91
2023-05-09T08:07:18.811Z,44.21
2023-05-09T08:09:22.111Z,42.15
2023-05-09T08:11:25.082Z,45.12
2023-05-09T08:13:28.131Z,44.00
2023-05-09T08:15:31.641Z,42.52
2023-05-09T08:17:34.567Z,42.83
2023-05-09T08:19:37.631Z,42.65
2023-05-09T08:21:40.603Z,42.57
2023-05-09T08:23:45.147Z,42.49
2023-05-09T08:25:48.065Z,42.96
2023-05-09T08:27:52.975Z,43.05
2023-05-09T08:29:56.054Z,42.45
2023-05-09T08:31:59.033Z,43.72
2023-05-09T08:34:02.372Z,41.27
2023-05-09T08:36:06.446Z,42.68
2023-05-09T08:38:09.334Z,41.81
2023-05-09T08:42:22.095Z,42.84
2023-05-09T08:44:26.268Z,43.28
2023-05-09T08:46:34.463Z,41.42
2023-05-09T08:48:38.567Z,40.90
2023-05-09T08:50:42.222Z,40.17
2023-05-09T08:52:45.396Z,43.49
2023-05-09T08:54:49.290Z,40.92
2023-05-09T08:56:54.564Z,41.08
2023-05-09T08:58:57.704Z,39.01
2023-05-09T09:01:01.837Z,41.40
2023-05-09T09:03:06.887Z,39.49
2023-05-09T09:05:23.768Z,39.21
2023-05-09T09:07:34.955Z,39.63
2023-05-09T09:09:39.869Z,38.74
2023-05-09T09:11:43.244Z,40.27
2023-05-09T09:13:50.377Z,38.34
2023-05-09T09:15:54.905Z,41.77
2023-05-09T09:18:00.398Z,39.50
2023-05-09T09:20:09.829Z,42.05
2023-05-09T09:22:16.345Z,41.10
2023-05-09T09:24:23.409Z,40.95
2023-05-09T09:26:29.591Z,40.70
2023-05-09T09:28:33.004Z,39.93
2023-05-09T09:30:44.395Z,39.58
2023-05-09T09:32:47.426Z,39.42
2023-05-09T09:34:51.076Z,41.26
2023-05-09T09:36:53.894Z,37.85
2023-05-09T09:39:01.343Z,38.89
2023-05-09T09:41:04.674Z,39.32
2023-05-09T09:43:08.324Z,38.06
2023-05-09T09:45:13.087Z,40.50
2023-05-09T09:47:17.533Z,40.00
2023-05-09T09:49:22.254Z,38.52
2023-05-09T09:51:29.434Z,38.21
2023-05-09T09:53:39.683Z,38.03
2023-05-09T09:55:50.703Z,38.74
2023-05-09T09:57:54.027Z,38.53
2023-05-09T09:59:59.430Z,37.28
2023-05-09T10:02:07.695Z,39.88
2023-05-09T10:04:17.041Z,40.48
2023-05-09T10:06:20.006Z,38.48
2023-05-09T10:08:23.014Z,38.58
2023-05-09T10:10:29.706Z,38.11
2023-05-09T10:12:35.098Z,38.37
2023-05-09T10:14:42.402Z,38.38
2023-05-09T10:16:47.274Z,39.53
2023-05-09T10:18:50.423Z,37.98
2023-05-09T10:20:56.748Z,39.69
2023-05-09T10:23:02.339Z,39.39
2023-05-09T10:25:07.197Z,39.47
2023-05-09T10:27:12.056Z,40.77
2023-05-09T10:29:23.126Z,39.82
2023-05-09T10:31:27.912Z,39.65
2023-05-09T10:33:38.333Z,41.71
2023-05-09T10:35:44.898Z,38.23
2023-05-09T10:37:50.031Z,40.10
2023-05-09T10:39:54.922Z,41.51
2023-05-09T10:42:01.078Z,43.14
2023-05-09T10:44:04.121Z,39.95
2023-05-09T10:46:07.721Z,40.26
2023-05-09T10:48:11.869Z,38.60
2023-05-09T10:50:15.407Z,40.35
2023-05-09T10:52:19.327Z,39.75
2023-05-09T10:54:30.882Z,39.23
2023-05-09T10:56:36.099Z,40.97
2023-05-09T10:58:41.230Z,37.57
2023-05-09T11:00:46.348Z,38.65
2023-05-09T11:03:08.354Z,40.45
2023-05-09T11:05:15.651Z,39.25
2023-05-09T11:07:26.551Z,38.20
2023-05-09T11:09:33.567Z,37.71
2023-05-09T11:11:52.580Z,38.14
2023-05-09T11:13:58.664Z,37.26
2023-05-09T11:16:08.880Z,37.23
2023-05-09T11:18:11.922Z,36.47
2023-05-09T11:20:14.896Z,37.02
2023-05-09T11:22:20.493Z,38.92
2023-05-09T11:24:23.495Z,35.46
2023-05-09T11:26:30.908Z,36.07
2023-05-09T11:28:35.509Z,38.69
2023-05-09T11:30:41.324Z,36.74
2023-05-09T11:32:48.248Z,37.64
2023-05-09T11:34:51.423Z,37.32
2023-05-09T11:37:09.917Z,37.49
2023-05-09T11:39:12.777Z,38.24
2023-05-09T11:41:16.185Z,37.62
2023-05-09T11:43:20.664Z,37.40
2023-05-09T11:45:25.087Z,38.89
2023-05-09T11:47:29.848Z,36.78
2023-05-09T11:49:32.946Z,35.46
2023-05-09T11:51:37.882Z,36.80
2023-05-09T11:53:47.089Z,35.66
2023-05-09T11:55:50.237Z,38.72
2023-05-09T11:57:54.643Z,36.78
2023-05-09T12:00:01.252Z,35.96
2023-05-09T12:02:05.306Z,37.11
2023-05-09T12:04:09.052Z,35.03
2023-05-09T12:06:16.525Z,34.49
2023-05-09T12:08:19.463Z,34.50
2023-05-09T12:10:23.682Z,36.19
2023-05-09T12:12:26.555Z,33.74
2023-05-09T12:14:30.781Z,34.40
2023-05-09T12:16:35.229Z,35.71
2023-05-09T12:18:38.219Z,35.02
2023-05-09T12:20:46.387Z,33.15
2023-05-09T12:22:54.819Z,33.48
2023-05-09T12:24:58.829Z,35.56
2023-05-09T12:27:02.769Z,34.61
2023-05-09T12:29:06.006Z,33.72
2023-05-09T12:31:09.475Z,35.16
2023-05-09T12:33:14.692Z,33.57
2023-05-09T12:35:17.806Z,35.42
2023-05-09T12:37:20.880Z,35.46
2023-05-09T12:39:24.830Z,34.34
2023-05-09T12:41:36.860Z,36.39
2023-05-09T12:43:42.786Z,35.79
2023-05-09T12:45:45.660Z,34.10
2023-05-09T12:47:52.567Z,33.56
2023-05-09T12:49:59.647Z,33.69
2023-05-09T12:52:04.754Z,33.06
2023-05-09T12:54:11.296Z,31.37
2023-05-09T12:56:16.159Z,33.12
2023-05-09T12:58:19.243Z,33.01
2023-05-09T13:00:22.983Z,33.21
2023-05-09T13:02:27.833Z,33.87
2023-05-09T13:04:32.200Z,34.44
2023-05-09T13:06:49.731Z,34.34
2023-05-09T13:09:00.295Z,35.77
2023-05-09T13:11:14.847Z,35.58
2023-05-09T13:13:18.483Z,35.25
2023-05-09T13:15:23.133Z,35.19
2023-05-09T13:17:26.361Z,35.13
2023-05-09T13:19:29.279Z,34.34
2023-05-09T13:21:32.373Z,35.22
2023-05-09T13:23:36.700Z,35.47
2023-05-09T13:25:39.648Z,34.30
2023-05-09T13:27:42.558Z,36.74
2023-05-09T13:29:45.499Z,37.04
2023-05-09T13:31:48.783Z,37.55
2023-05-09T13:33:52.243Z,38.09
2023-05-09T13:35:55.230Z,37.20
2023-05-09T13:37:59.659Z,36.66
2023-05-09T13:40:05.451Z,37.03
2023-05-09T13:42:10.996Z,35.29
2023-05-09T13:44:13.872Z,34.05
2023-05-09T13:46:16.828Z,34.58
2023-05-09T13:48:20.123Z,33.65
2023-05-09T13:50:23.249Z,35.43
2023-05-09T13:52:26.235Z,35.41
2023-05-09T13:54:35.156Z,36.23
2023-05-09T13:56:39.788Z,35.54
2023-05-09T13:58:42.744Z,36.76
2023-05-09T14:00:45.876Z,35.71
2023-05-09T14:02:49.014Z,32.73
2023-05-09T14:04:51.991Z,32.06
2023-05-09T14:06:55.197Z,32.22
2023-05-09T14:08:58.230Z,32.44
2023-05-09T14:11:02.470Z,33.85
2023-05-09T14:13:08.758Z,35.59
2023-05-09T14:15:11.831Z,37.89
2023-05-09T14:17:14.596Z,36.55
2023-05-09T14:19:18.068Z,35.72
2023-05-09T14:21:20.894Z,35.37
2023-05-09T14:23:23.842Z,35.87
2023-05-09T14:25:27.154Z,35.82
2023-05-09T14:27:30.502Z,35.18
2023-05-09T14:29:38.669Z,34.43
2023-05-09T14:31:42.800Z,36.97
2023-05-09T14:33:45.863Z,36.11
2023-05-09T14:35:48.828Z,37.88
2023-05-09T14:37:51.877Z,35.13
2023-05-09T14:39:55.119Z,34.93
2023-05-09T14:41:58.013Z,35.23
2023-05-09T14:44:00.988Z,35.82
2023-05-09T14:46:05.920Z,34.35
2023-05-09T14:48:08.936Z,35.32
2023-05-09T14:50:16.177Z,34.73
2023-05-09T14:52:19.339Z,34.95
2023-05-09T14:54:22.341Z,36.08
2023-05-09T14:56:25.511Z,35.14
2023-05-09T14:58:31.264Z,35.46
2023-05-09T15:00:35.163Z,37.02
2023-05-09T15:02:40.189Z,37.56
2023-05-09T15:04:44.140Z,35.95
2023-05-09T15:06:47.122Z,39.60
2023-05-09T15:08:50.132Z,38.14
2023-05-09T15:10:53.063Z,35.12
2023-05-09T15:12:56.799Z,35.48
2023-05-09T15:15:13.412Z,36.00
2023-05-09T15:17:16.431Z,35.90
2023-05-09T15:19:22.790Z,36.33
2023-05-09T15:21:25.902Z,37.33
2023-05-09T15:23:28.876Z,37.88
2023-05-09T15:25:31.943Z,36.22
2023-05-09T15:27:34.847Z,36.54
2023-05-09T15:29:37.882Z,36.85
2023-05-09T15:31:40.991Z,36.35
2023-05-09T15:33:45.298Z,38.37
2023-05-09T15:35:50.552Z,38.49
2023-05-09T15:37:53.474Z,36.90
2023-05-09T15:39:56.633Z,37.11
2023-05-09T15:42:00.524Z,36.85
2023-05-09T15:44:03.413Z,38.71
2023-05-09T15:46:06.791Z,35.48
2023-05-09T15:48:09.725Z,36.68
2023-05-09T15:50:13.122Z,37.46
2023-05-09T15:52:17.715Z,38.98
2023-05-09T15:54:20.653Z,36.87
2023-05-09T15:56:23.573Z,37.50
2023-05-09T15:58:26.618Z,37.50
2023-05-09T16:00:30.115Z,38.78
2023-05-09T16:02:33.128Z,36.92
2023-05-09T16:04:36.284Z,38.68
2023-05-09T16:06:39.226Z,38.87
2023-05-09T16:08:46.614Z,37.64
2023-05-09T16:10:49.693Z,39.67
2023-05-09T16:12:52.751Z,39.50
2023-05-09T16:14:55.825Z,39.28
2023-05-09T16:16:58.716Z,39.59
2023-05-09T16:19:05.366Z,38.84
2023-05-09T16:21:08.858Z,39.16
2023-05-09T16:23:12.173Z,38.63
2023-05-09T16:25:16.974Z,39.08
2023-05-09T16:27:20.265Z,39.41
2023-05-09T16:29:23.495Z,39.51
2023-05-09T16:31:26.882Z,38.88
2023-05-09T16:33:29.825Z,40.19
2023-05-09T16:35:32.937Z,39.40
2023-05-09T16:37:35.927Z,40.20
2023-05-09T16:39:39.063Z,38.54
2023-05-09T16:41:43.447Z,40.58
2023-05-09T16:43:47.024Z,39.00
2023-05-09T16:45:50.301Z,39.48
2023-05-09T16:47:55.773Z,39.38
2023-05-09T16:49:58.879Z,41.24
2023-05-09T16:52:01.755Z,42.71
2023-05-09T16:54:04.804Z,41.35
2023-05-09T16:56:08.275Z,42.44
2023-05-09T16:58:12.665Z,41.99
2023-05-09T17:00:16.981Z,41.38
2023-05-09T17:02:20.077Z,41.02
2023-05-09T17:04:23.037Z,42.37
2023-05-09T17:06:26.523Z,41.53
2023-05-09T17:08:30.194Z,39.98
2023-05-09T17:10:34.204Z,43.03
2023-05-09T17:12:42.286Z,41.20
2023-05-09T17:14:47.232Z,41.91
2023-05-09T17:16:50.157Z,42.73
2023-05-09T17:18:53.601Z,42.44
2023-05-09T17:20:57.007Z,44.22
2023-05-09T17:22:59.955Z,44.37
2023-05-09T17:25:02.899Z,43.91
2023-05-09T17:27:05.966Z,42.77
2023-05-09T17:29:08.984Z,42.75
2023-05-09T17:31:13.632Z,46.45
2023-05-09T17:33:16.686Z,42.37
2023-05-09T17:35:21.075Z,44.40
2023-05-09T17:37:23.964Z,44.48
2023-05-09T17:39:27.404Z,46.24
2023-05-09T17:41:30.548Z,44.32
2023-05-09T17:43:33.485Z,47.76
2023-05-09T17:45:36.456Z,46.37
2023-05-09T17:47:41.011Z,45.31
2023-05-09T17:49:44.926Z,47.05
2023-05-09T17:51:47.831Z,46.92
2023-05-09T17:53:52.956Z,47.97
2023-05-09T17:55:57.363Z,46.03
2023-05-09T17:58:00.542Z,49.20
2023-05-09T18:00:04.352Z,48.41
2023-05-09T18:02:17.113Z,47.83
2023-05-09T18:04:21.801Z,51.36
2023-05-09T18:06:24.678Z,51.14
2023-05-09T18:08:27.935Z,51.13
2023-05-09T18:10:30.952Z,51.83
2023-05-09T18:12:36.884Z,52.83
2023-05-09T18:14:40.543Z,50.61
2023-05-09T18:16:43.621Z,52.50
2023-05-09T18:18:46.602Z,51.44
2023-05-09T18:20:51.004Z,50.26
2023-05-09T18:22:54.715Z,52.41
2023-05-09T18:24:57.632Z,52.11
2023-05-09T18:27:00.568Z,52.34
2023-05-09T18:29:03.472Z,52.64
2023-05-09T18:31:07.933Z,51.80
2023-05-09T18:33:10.748Z,51.60
2023-05-09T18:35:14.219Z,50.03
2023-05-09T18:37:18.951Z,53.40
2023-05-09T18:39:21.811Z,50.37
2023-05-09T18:41:26.022Z,48.23
2023-05-09T18:43:30.050Z,50.69
2023-05-09T18:45:34.050Z,49.68
2023-05-09T18:47:37.719Z,50.59
2023-05-09T18:49:40.870Z,49.66
2023-05-09T18:51:43.722Z,47.87
2023-05-09T18:53:48.113Z,48.43
2023-05-09T18:55:50.912Z,48.81
2023-05-09T18:57:53.691Z,49.61
2023-05-09T18:59:56.603Z,50.61
2023-05-09T19:01:59.439Z,50.62
2023-05-09T19:04:02.785Z,51.01
2023-05-09T19:06:05.660Z,52.51
2023-05-09T19:08:08.653Z,51.25
2023-05-09T19:10:13.659Z,51.20
2023-05-09T19:12:17.893Z,49.63
2023-05-09T19:14:20.756Z,50.49
2023-05-09T19:16:25.016Z,50.87
2023-05-09T19:18:27.918Z,52.47
2023-05-09T19:20:31.080Z,51.73
2023-05-09T19:22:34.039Z,51.88
2023-05-09T19:24:37.108Z,52.82
2023-05-09T19:26:41.821Z,52.67
2023-05-09T19:28:46.270Z,51.85
2023-05-09T19:30:49.475Z,51.83
2023-05-09T19:32:53.222Z,52.77
2023-05-09T19:34:56.340Z,51.82
2023-05-09T19:36:59.367Z,52.83
2023-05-09T19:39:02.392Z,53.37
2023-05-09T19:41:05.621Z,52.63
2023-05-09T19:43:09.992Z,54.80
2023-05-09T19:45:13.330Z,55.02
2023-05-09T19:47:16.151Z,52.71
2023-05-09T19:49:19.174Z,52.50
2023-05-09T19:51:22.132Z,55.68
2023-05-09T19:53:25.354Z,54.29
2023-05-09T19:55:28.321Z,55.91
2023-05-09T19:57:31.793Z,56.56
2023-05-09T19:59:36.297Z,55.99
2023-05-09T20:01:39.310Z,55.01
2023-05-09T20:03:43.694Z,55.84
2023-05-09T20:08:07.827Z,56.40
2023-05-09T20:10:13.110Z,54.11
2023-05-09T20:12:17.054Z,53.40
2023-05-09T20:14:20.354Z,54.47
2023-05-09T20:16:25.067Z,54.74
2023-05-09T20:18:28.835Z,55.13
2023-05-09T20:20:34.734Z,55.36
2023-05-09T20:22:37.655Z,55.43
2023-05-09T20:24:41.213Z,54.73
2023-05-09T20:26:44.282Z,57.79
2023-05-09T20:28:47.094Z,56.25
2023-05-09T20:30:50.490Z,55.52
2023-05-09T20:32:55.105Z,56.90
2023-05-09T20:34:58.151Z,56.90
2023-05-09T20:37:01.224Z,56.09
2023-05-09T20:39:04.345Z,56.39
2023-05-09T20:41:07.377Z,54.57
2023-05-09T20:43:10.535Z,55.35
2023-05-09T20:45:14.311Z,55.12
2023-05-09T20:47:17.782Z,54.76
2023-05-09T20:49:23.142Z,55.70
2023-05-09T20:51:26.195Z,53.63
2023-05-09T20:53:32.064Z,53.96
2023-05-09T20:55:35.658Z,54.48
2023-05-09T20:57:38.570Z,54.44
2023-05-09T20:59:41.433Z,54.23
2023-05-09T21:01:44.475Z,54.38
2023-05-09T21:03:47.767Z,54.72
2023-05-09T21:05:52.106Z,54.38
2023-05-09T21:07:55.136Z,53.86
2023-05-09T21:09:58.384Z,54.81
2023-05-09T21:12:04.056Z,54.52
2023-05-09T21:14:07.525Z,54.88
2023-05-09T21:16:10.806Z,54.44
2023-05-09T21:18:13.682Z,53.12
2023-05-09T21:20:17.127Z,55.23
2023-05-09T21:22:21.642Z,56.88
2023-05-09T21:24:24.762Z,54.03
2023-05-09T21:26:27.622Z,54.94
2023-05-09T21:28:30.822Z,53.90
2023-05-09T21:30:33.762Z,55.06
2023-05-09T21:32:36.825Z,55.91
2023-05-09T21:34:43.082Z,57.03
2023-05-09T21:36:46.080Z,57.83
2023-05-09T21:38:50.377Z,56.50
2023-05-09T21:40:53.474Z,54.94
2023-05-09T21:42:56.520Z,54.13
2023-05-09T21:44:59.440Z,55.53
2023-05-09T21:47:02.411Z,55.47
2023-05-09T21:49:05.630Z,55.06
2023-05-09T21:51:09.270Z,56.57
2023-05-09T21:53:12.239Z,58.14
2023-05-09T21:55:16.709Z,60.58
2023-05-09T21:57:19.670Z,56.57
2023-05-09T21:59:22.697Z,57.33
2023-05-09T22:01:25.651Z,58.05
2023-05-09T22:03:28.843Z,57.31
2023-05-09T22:05:31.946Z,58.66
2023-05-09T22:07:34.990Z,59.20
2023-05-09T22:09:37.901Z,56.71
2023-05-09T22:11:42.533Z,58.41
2023-05-09T22:13:45.585Z,57.37
2023-05-09T22:15:48.623Z,58.59
2023-05-09T22:17:51.587Z,59.07
2023-05-09T22:19:54.529Z,58.62
2023-05-09T22:21:57.463Z,59.40
2023-05-09T22:24:00.310Z,61.00
2023-05-09T22:26:03.520Z,61.28
2023-05-09T22:28:07.938Z,61.25
2023-05-09T22:30:12.716Z,60.61
2023-05-09T22:32:15.609Z,61.39
2023-05-09T22:34:18.561Z,63.56
2023-05-09T22:36:22.166Z,60.72
2023-05-09T22:38:25.199Z,63.12
2023-05-09T22:40:29.068Z,60.95
2023-05-09T22:42:32.210Z,63.66
2023-05-09T22:44:36.479Z,65.07
2023-05-09T22:46:39.641Z,62.70
2023-05-09T22:48:42.570Z,63.84
2023-05-09T22:50:45.553Z,63.83
2023-05-09T22:52:48.504Z,63.39
2023-05-09T22:54:51.410Z,65.15
2023-05-09T22:56:54.313Z,66.04
2023-05-09T22:58:57.468Z,65.19
2023-05-09T23:01:01.889Z,66.12
2023-05-09T23:03:05.500Z,66.28
2023-05-09T23:05:09.651Z,68.25
2023-05-09T23:07:12.652Z,69.28
2023-05-09T23:09:15.540Z,68.19
2023-05-09T23:11:18.388Z,66.18
2023-05-09T23:13:21.580Z,68.02
2023-05-09T23:15:24.664Z,67.07
2023-05-09T23:17:29.147Z,66.73
2023-05-09T23:19:32.262Z,68.65
2023-05-09T23:21:35.088Z,67.03
2023-05-09T23:23:38.030Z,66.52
2023-05-09T23:25:41.109Z,66.99
2023-05-09T23:27:45.094Z,68.13
2023-05-09T23:29:47.994Z,68.78
2023-05-09T23:31:51.320Z,68.41
2023-05-09T23:33:55.726Z,68.50
2023-05-09T23:35:58.654Z,69.43
2023-05-09T23:38:01.572Z,69.73
2023-05-09T23:40:05.031Z,70.29
2023-05-09T23:42:08.528Z,71.21
2023-05-09T23:44:12.481Z,69.94
2023-05-09T23:46:15.373Z,70.22
2023-05-09T23:48:18.391Z,70.84
2023-05-09T23:50:23.059Z,71.31
2023-05-09T23:52:26.286Z,71.85
2023-05-09T23:54:29.346Z,72.11
2023-05-09T23:56:33.203Z,71.74
2023-05-09T23:58:36.046Z,72.49
